sensor_id;sensor_type;location;lat;lon;timestamp;temperature;humidity
78619;DHT22;67941;52.506;5.470;2023-04-01T00:01:31;10.90;76.90
78619;DHT22;67941;52.506;5.470;2023-04-01T00:04:00;11.00;76.90
78619;DHT22;67941;52.506;5.470;2023-04-01T00:06:29;11.00;77.00
78619;DHT22;67941;52.506;5.470;2023-04-01T00:08:58;11.00;76.90
78619;DHT22;67941;52.506;5.470;2023-04-01T00:11:27;11.00;76.90
78619;DHT22;67941;52.506;5.470;2023-04-01T00:13:56;11.00;76.80
78619;DHT22;67941;52.506;5.470;2023-04-01T00:16:27;11.00;76.90
78619;DHT22;67941;52.506;5.470;2023-04-01T00:18:56;11.00;76.80
78619;DHT22;67941;52.506;5.470;2023-04-01T00:21:25;11.00;76.90
78619;DHT22;67941;52.506;5.470;2023-04-01T00:23:54;11.00;76.90
78619;DHT22;67941;52.506;5.470;2023-04-01T00:26:23;11.00;76.90
78619;DHT22;67941;52.506;5.470;2023-04-01T00:28:52;11.00;76.90
78619;DHT22;67941;52.506;5.470;2023-04-01T00:31:21;11.00;77.00
78619;DHT22;67941;52.506;5.470;2023-04-01T00:33:53;11.00;76.90
78619;DHT22;67941;52.506;5.470;2023-04-01T00:36:22;11.00;77.00
78619;DHT22;67941;52.506;5.470;2023-04-01T00:38:51;11.00;77.00
78619;DHT22;67941;52.506;5.470;2023-04-01T00:41:21;11.00;77.00
78619;DHT22;67941;52.506;5.470;2023-04-01T00:43:52;10.90;77.00
78619;DHT22;67941;52.506;5.470;2023-04-01T00:46:21;10.90;77.00
78619;DHT22;67941;52.506;5.470;2023-04-01T00:48:54;10.90;77.10
78619;DHT22;67941;52.506;5.470;2023-04-01T00:51:26;10.90;77.00
78619;DHT22;67941;52.506;5.470;2023-04-01T00:53:58;10.90;77.00
78619;DHT22;67941;52.506;5.470;2023-04-01T00:56:32;10.90;77.10
78619;DHT22;67941;52.506;5.470;2023-04-01T00:59:04;10.90;77.10
78619;DHT22;67941;52.506;5.470;2023-04-01T01:01:37;10.90;77.10
78619;DHT22;67941;52.506;5.470;2023-04-01T01:04:24;10.80;77.10
78619;DHT22;67941;52.506;5.470;2023-04-01T01:07:03;10.80;77.20
78619;DHT22;67941;52.506;5.470;2023-04-01T01:09:43;10.80;77.10
78619;DHT22;67941;52.506;5.470;2023-04-01T01:12:18;10.70;77.20
78619;DHT22;67941;52.506;5.470;2023-04-01T01:14:57;10.70;77.20
78619;DHT22;67941;52.506;5.470;2023-04-01T01:17:39;10.70;77.10
78619;DHT22;67941;52.506;5.470;2023-04-01T01:20:32;10.70;77.20
78619;DHT22;67941;52.506;5.470;2023-04-01T01:26:24;10.60;77.20
78619;DHT22;67941;52.506;5.470;2023-04-01T01:29:06;10.60;77.20
78619;DHT22;67941;52.506;5.470;2023-04-01T01:31:49;10.60;77.30
78619;DHT22;67941;52.506;5.470;2023-04-01T01:34:23;10.60;77.30
78619;DHT22;67941;52.506;5.470;2023-04-01T01:37:03;10.60;77.30
78619;DHT22;67941;52.506;5.470;2023-04-01T01:39:35;10.60;77.30
78619;DHT22;67941;52.506;5.470;2023-04-01T01:42:06;10.60;77.30
78619;DHT22;67941;52.506;5.470;2023-04-01T01:44:36;10.60;77.30
78619;DHT22;67941;52.506;5.470;2023-04-01T01:47:06;10.60;77.30
78619;DHT22;67941;52.506;5.470;2023-04-01T01:49:36;10.50;77.30
78619;DHT22;67941;52.506;5.470;2023-04-01T01:52:08;10.50;77.40
78619;DHT22;67941;52.506;5.470;2023-04-01T01:54:47;10.50;77.40
78619;DHT22;67941;52.506;5.470;2023-04-01T01:57:19;10.60;77.40
78619;DHT22;67941;52.506;5.470;2023-04-01T01:59:54;10.60;77.30
78619;DHT22;67941;52.506;5.470;2023-04-01T02:02:27;10.60;77.40
78619;DHT22;67941;52.506;5.470;2023-04-01T02:04:58;10.50;77.40
78619;DHT22;67941;52.506;5.470;2023-04-01T02:07:32;10.60;77.30
78619;DHT22;67941;52.506;5.470;2023-04-01T02:10:03;10.60;77.30
78619;DHT22;67941;52.506;5.470;2023-04-01T02:12:35;10.50;77.30
78619;DHT22;67941;52.506;5.470;2023-04-01T02:15:08;10.50;77.40
78619;DHT22;67941;52.506;5.470;2023-04-01T02:17:42;10.50;77.50
78619;DHT22;67941;52.506;5.470;2023-04-01T02:20:16;10.50;77.50
78619;DHT22;67941;52.506;5.470;2023-04-01T02:22:51;10.60;77.50
78619;DHT22;67941;52.506;5.470;2023-04-01T02:25:24;10.60;77.50
78619;DHT22;67941;52.506;5.470;2023-04-01T02:27:55;10.60;77.50
78619;DHT22;67941;52.506;5.470;2023-04-01T02:30:27;10.60;77.50
78619;DHT22;67941;52.506;5.470;2023-04-01T02:32:58;10.60;77.50
78619;DHT22;67941;52.506;5.470;2023-04-01T02:35:32;10.60;77.50
78619;DHT22;67941;52.506;5.470;2023-04-01T02:38:05;10.60;77.50
78619;DHT22;67941;52.506;5.470;2023-04-01T02:40:48;10.60;77.50
78619;DHT22;67941;52.506;5.470;2023-04-01T02:43:18;10.60;77.60
78619;DHT22;67941;52.506;5.470;2023-04-01T02:45:47;10.60;77.50
78619;DHT22;67941;52.506;5.470;2023-04-01T02:48:16;10.60;77.50
78619;DHT22;67941;52.506;5.470;2023-04-01T02:50:45;10.50;77.50
78619;DHT22;67941;52.506;5.470;2023-04-01T02:53:16;10.60;77.50
78619;DHT22;67941;52.506;5.470;2023-04-01T02:55:45;10.50;77.50
78619;DHT22;67941;52.506;5.470;2023-04-01T02:58:16;10.50;77.50
78619;DHT22;67941;52.506;5.470;2023-04-01T03:00:45;10.50;77.60
78619;DHT22;67941;52.506;5.470;2023-04-01T03:03:14;10.50;77.60
78619;DHT22;67941;52.506;5.470;2023-04-01T03:05:43;10.50;77.60
78619;DHT22;67941;52.506;5.470;2023-04-01T03:08:11;10.50;77.60
78619;DHT22;67941;52.506;5.470;2023-04-01T03:10:43;10.50;77.60
78619;DHT22;67941;52.506;5.470;2023-04-01T03:13:12;10.50;77.70
78619;DHT22;67941;52.506;5.470;2023-04-01T03:15:42;10.50;77.70
78619;DHT22;67941;52.506;5.470;2023-04-01T03:18:11;10.50;77.60
78619;DHT22;67941;52.506;5.470;2023-04-01T03:20:40;10.50;77.60
78619;DHT22;67941;52.506;5.470;2023-04-01T03:23:10;10.50;77.60
78619;DHT22;67941;52.506;5.470;2023-04-01T03:25:39;10.50;77.60
78619;DHT22;67941;52.506;5.470;2023-04-01T03:28:10;10.50;77.70
78619;DHT22;67941;52.506;5.470;2023-04-01T03:30:39;10.50;77.70
78619;DHT22;67941;52.506;5.470;2023-04-01T03:33:09;10.50;77.70
78619;DHT22;67941;52.506;5.470;2023-04-01T03:35:38;10.50;77.70
78619;DHT22;67941;52.506;5.470;2023-04-01T03:38:06;10.50;77.70
78619;DHT22;67941;52.506;5.470;2023-04-01T03:40:36;10.50;77.70
78619;DHT22;67941;52.506;5.470;2023-04-01T03:43:10;10.50;77.70
78619;DHT22;67941;52.506;5.470;2023-04-01T03:45:43;10.50;77.70
78619;DHT22;67941;52.506;5.470;2023-04-01T03:48:13;10.40;77.70
78619;DHT22;67941;52.506;5.470;2023-04-01T03:50:42;10.40;77.70
78619;DHT22;67941;52.506;5.470;2023-04-01T03:53:12;10.40;77.70
78619;DHT22;67941;52.506;5.470;2023-04-01T03:55:43;10.40;77.70
78619;DHT22;67941;52.506;5.470;2023-04-01T03:58:15;10.40;77.70
78619;DHT22;67941;52.506;5.470;2023-04-01T04:00:44;10.40;77.70
78619;DHT22;67941;52.506;5.470;2023-04-01T04:03:13;10.30;77.70
78619;DHT22;67941;52.506;5.470;2023-04-01T04:05:46;10.30;77.80
78619;DHT22;67941;52.506;5.470;2023-04-01T04:08:17;10.30;77.80
78619;DHT22;67941;52.506;5.470;2023-04-01T04:10:54;10.30;77.80
78619;DHT22;67941;52.506;5.470;2023-04-01T04:13:27;10.30;77.90
78619;DHT22;67941;52.506;5.470;2023-04-01T04:16:00;10.30;77.90
78619;DHT22;67941;52.506;5.470;2023-04-01T04:18:29;10.30;77.90
78619;DHT22;67941;52.506;5.470;2023-04-01T04:20:58;10.30;77.90
78619;DHT22;67941;52.506;5.470;2023-04-01T04:23:27;10.30;77.90
78619;DHT22;67941;52.506;5.470;2023-04-01T04:25:59;10.30;77.90
78619;DHT22;67941;52.506;5.470;2023-04-01T04:28:32;10.30;77.90
78619;DHT22;67941;52.506;5.470;2023-04-01T04:31:02;10.40;77.90
78619;DHT22;67941;52.506;5.470;2023-04-01T04:33:33;10.30;77.90
78619;DHT22;67941;52.506;5.470;2023-04-01T04:36:03;10.30;77.90
78619;DHT22;67941;52.506;5.470;2023-04-01T04:38:32;10.30;78.00
78619;DHT22;67941;52.506;5.470;2023-04-01T04:41:01;10.30;78.00
78619;DHT22;67941;52.506;5.470;2023-04-01T04:43:33;10.30;78.10
78619;DHT22;67941;52.506;5.470;2023-04-01T04:46:04;10.30;78.00
78619;DHT22;67941;52.506;5.470;2023-04-01T04:48:34;10.30;78.00
78619;DHT22;67941;52.506;5.470;2023-04-01T04:51:03;10.30;78.10
78619;DHT22;67941;52.506;5.470;2023-04-01T04:53:32;10.30;78.00
78619;DHT22;67941;52.506;5.470;2023-04-01T04:56:01;10.30;78.10
78619;DHT22;67941;52.506;5.470;2023-04-01T04:58:41;10.30;78.00
78619;DHT22;67941;52.506;5.470;2023-04-01T05:01:16;10.30;78.10
78619;DHT22;67941;52.506;5.470;2023-04-01T05:03:46;10.30;78.00
78619;DHT22;67941;52.506;5.470;2023-04-01T05:06:16;10.30;78.00
78619;DHT22;67941;52.506;5.470;2023-04-01T05:08:46;10.30;78.00
78619;DHT22;67941;52.506;5.470;2023-04-01T05:11:16;10.30;78.10
78619;DHT22;67941;52.506;5.470;2023-04-01T05:13:48;10.30;78.10
78619;DHT22;67941;52.506;5.470;2023-04-01T05:16:19;10.30;78.10
78619;DHT22;67941;52.506;5.470;2023-04-01T05:18:48;10.30;78.20
78619;DHT22;67941;52.506;5.470;2023-04-01T05:21:17;10.20;78.20
78619;DHT22;67941;52.506;5.470;2023-04-01T05:23:46;10.30;78.30
78619;DHT22;67941;52.506;5.470;2023-04-01T05:26:15;10.20;78.30
78619;DHT22;67941;52.506;5.470;2023-04-01T05:28:44;10.20;78.30
78619;DHT22;67941;52.506;5.470;2023-04-01T05:31:16;10.20;78.30
78619;DHT22;67941;52.506;5.470;2023-04-01T05:33:47;10.20;78.40
78619;DHT22;67941;52.506;5.470;2023-04-01T05:36:16;10.20;78.40
78619;DHT22;67941;52.506;5.470;2023-04-01T05:38:45;10.20;78.50
78619;DHT22;67941;52.506;5.470;2023-04-01T05:41:16;10.20;78.50
78619;DHT22;67941;52.506;5.470;2023-04-01T05:43:45;10.20;78.50
78619;DHT22;67941;52.506;5.470;2023-04-01T05:46:35;10.20;78.60
78619;DHT22;67941;52.506;5.470;2023-04-01T05:49:25;10.20;78.50
78619;DHT22;67941;52.506;5.470;2023-04-01T05:51:54;10.10;78.50
78619;DHT22;67941;52.506;5.470;2023-04-01T05:54:23;10.10;78.60
78619;DHT22;67941;52.506;5.470;2023-04-01T05:56:52;10.10;78.70
78619;DHT22;67941;52.506;5.470;2023-04-01T05:59:21;10.00;78.70
78619;DHT22;67941;52.506;5.470;2023-04-01T06:01:52;10.10;78.80
78619;DHT22;67941;52.506;5.470;2023-04-01T06:04:22;10.00;78.80
78619;DHT22;67941;52.506;5.470;2023-04-01T06:06:51;10.00;78.90
78619;DHT22;67941;52.506;5.470;2023-04-01T06:09:26;10.00;78.90
78619;DHT22;67941;52.506;5.470;2023-04-01T06:12:21;10.00;79.00
78619;DHT22;67941;52.506;5.470;2023-04-01T06:15:04;10.00;79.00
78619;DHT22;67941;52.506;5.470;2023-04-01T06:18:04;10.00;79.00
78619;DHT22;67941;52.506;5.470;2023-04-01T06:20:47;10.00;79.00
78619;DHT22;67941;52.506;5.470;2023-04-01T06:23:37;10.00;79.00
78619;DHT22;67941;52.506;5.470;2023-04-01T06:26:19;10.00;79.10
78619;DHT22;67941;52.506;5.470;2023-04-01T06:29:06;10.00;79.20
78619;DHT22;67941;52.506;5.470;2023-04-01T06:31:51;10.00;79.20
78619;DHT22;67941;52.506;5.470;2023-04-01T06:37:27;10.00;79.20
78619;DHT22;67941;52.506;5.470;2023-04-01T06:40:17;10.00;79.30
78619;DHT22;67941;52.506;5.470;2023-04-01T06:42:59;10.00;79.30
78619;DHT22;67941;52.506;5.470;2023-04-01T06:46:13;10.00;79.40
78619;DHT22;67941;52.506;5.470;2023-04-01T06:49:27;10.00;79.40
78619;DHT22;67941;52.506;5.470;2023-04-01T06:52:26;10.00;79.40
78619;DHT22;67941;52.506;5.470;2023-04-01T06:55:26;10.00;79.40
78619;DHT22;67941;52.506;5.470;2023-04-01T06:58:20;10.00;79.40
78619;DHT22;67941;52.506;5.470;2023-04-01T07:00:52;10.00;79.40
78619;DHT22;67941;52.506;5.470;2023-04-01T07:03:29;10.00;79.40
78619;DHT22;67941;52.506;5.470;2023-04-01T07:06:03;10.00;79.50
78619;DHT22;67941;52.506;5.470;2023-04-01T07:08:43;10.10;79.60
78619;DHT22;67941;52.506;5.470;2023-04-01T07:11:22;10.10;79.60
78619;DHT22;67941;52.506;5.470;2023-04-01T07:14:30;10.10;79.60
78619;DHT22;67941;52.506;5.470;2023-04-01T07:17:04;10.20;79.60
78619;DHT22;67941;52.506;5.470;2023-04-01T07:19:39;10.20;79.60
78619;DHT22;67941;52.506;5.470;2023-04-01T07:22:20;10.20;79.60
78619;DHT22;67941;52.506;5.470;2023-04-01T07:25:31;10.20;79.70
78619;DHT22;67941;52.506;5.470;2023-04-01T07:28:21;10.20;79.70
78619;DHT22;67941;52.506;5.470;2023-04-01T07:31:07;10.30;79.70
78619;DHT22;67941;52.506;5.470;2023-04-01T07:33:42;10.30;79.70
78619;DHT22;67941;52.506;5.470;2023-04-01T07:36:17;10.30;79.70
78619;DHT22;67941;52.506;5.470;2023-04-01T07:38:57;10.40;79.70
78619;DHT22;67941;52.506;5.470;2023-04-01T07:41:58;10.40;79.70
78619;DHT22;67941;52.506;5.470;2023-04-01T07:44:36;10.40;79.70
78619;DHT22;67941;52.506;5.470;2023-04-01T07:47:17;10.40;79.70
78619;DHT22;67941;52.506;5.470;2023-04-01T07:49:57;10.40;79.70
78619;DHT22;67941;52.506;5.470;2023-04-01T07:52:34;10.40;79.70
78619;DHT22;67941;52.506;5.470;2023-04-01T07:55:16;10.40;79.70
78619;DHT22;67941;52.506;5.470;2023-04-01T07:57:55;10.40;79.80
78619;DHT22;67941;52.506;5.470;2023-04-01T08:00:37;10.40;79.80
78619;DHT22;67941;52.506;5.470;2023-04-01T08:03:43;10.40;79.90
78619;DHT22;67941;52.506;5.470;2023-04-01T08:06:22;10.50;80.00
78619;DHT22;67941;52.506;5.470;2023-04-01T08:09:02;10.60;80.20
78619;DHT22;67941;52.506;5.470;2023-04-01T08:12:10;10.70;80.10
78619;DHT22;67941;52.506;5.470;2023-04-01T08:15:23;10.80;80.10
78619;DHT22;67941;52.506;5.470;2023-04-01T08:18:11;10.80;80.20
78619;DHT22;67941;52.506;5.470;2023-04-01T08:20:46;10.90;80.30
78619;DHT22;67941;52.506;5.470;2023-04-01T08:23:18;11.00;80.30
78619;DHT22;67941;52.506;5.470;2023-04-01T08:25:52;11.10;80.30
78619;DHT22;67941;52.506;5.470;2023-04-01T08:28:30;11.20;80.30
78619;DHT22;67941;52.506;5.470;2023-04-01T08:31:12;11.30;80.30
78619;DHT22;67941;52.506;5.470;2023-04-01T08:33:44;11.40;80.30
78619;DHT22;67941;52.506;5.470;2023-04-01T08:36:17;11.50;80.20
78619;DHT22;67941;52.506;5.470;2023-04-01T08:38:58;11.50;80.20
78619;DHT22;67941;52.506;5.470;2023-04-01T08:41:57;11.50;80.20
78619;DHT22;67941;52.506;5.470;2023-04-01T08:44:57;11.50;80.00
78619;DHT22;67941;52.506;5.470;2023-04-01T08:47:59;11.50;79.90
78619;DHT22;67941;52.506;5.470;2023-04-01T08:50:58;11.50;80.00
78619;DHT22;67941;52.506;5.470;2023-04-01T08:53:50;11.50;80.00
78619;DHT22;67941;52.506;5.470;2023-04-01T08:56:25;11.50;80.00
78619;DHT22;67941;52.506;5.470;2023-04-01T08:59:16;11.50;80.00
78619;DHT22;67941;52.506;5.470;2023-04-01T09:02:29;11.50;80.00
78619;DHT22;67941;52.506;5.470;2023-04-01T09:08:27;11.40;79.90
78619;DHT22;67941;52.506;5.470;2023-04-01T09:11:06;11.40;79.80
78619;DHT22;67941;52.506;5.470;2023-04-01T09:14:26;11.30;79.80
78619;DHT22;67941;52.506;5.470;2023-04-01T09:20:42;11.20;80.00
78619;DHT22;67941;52.506;5.470;2023-04-01T09:23:43;11.20;80.20
78619;DHT22;67941;52.506;5.470;2023-04-01T09:26:42;11.20;80.30
78619;DHT22;67941;52.506;5.470;2023-04-01T09:29:26;11.30;80.40
78619;DHT22;67941;52.506;5.470;2023-04-01T09:32:17;11.30;80.20
78619;DHT22;67941;52.506;5.470;2023-04-01T09:35:07;11.40;80.40
78619;DHT22;67941;52.506;5.470;2023-04-01T09:37:52;11.50;80.60
78619;DHT22;67941;52.506;5.470;2023-04-01T09:40:36;11.50;80.40
78619;DHT22;67941;52.506;5.470;2023-04-01T09:43:22;11.50;80.40
78619;DHT22;67941;52.506;5.470;2023-04-01T09:46:10;11.60;80.50
78619;DHT22;67941;52.506;5.470;2023-04-01T09:51:43;11.60;80.40
78619;DHT22;67941;52.506;5.470;2023-04-01T09:54:31;11.50;80.40
78619;DHT22;67941;52.506;5.470;2023-04-01T09:57:37;11.60;80.50
78619;DHT22;67941;52.506;5.470;2023-04-01T10:06:51;11.70;80.60
78619;DHT22;67941;52.506;5.470;2023-04-01T10:10:16;11.70;80.70
78619;DHT22;67941;52.506;5.470;2023-04-01T10:16:18;11.80;80.70
78619;DHT22;67941;52.506;5.470;2023-04-01T10:19:21;11.90;80.70
78619;DHT22;67941;52.506;5.470;2023-04-01T10:22:12;11.90;80.60
78619;DHT22;67941;52.506;5.470;2023-04-01T10:25:10;11.90;80.50
78619;DHT22;67941;52.506;5.470;2023-04-01T10:34:40;11.70;80.10
78619;DHT22;67941;52.506;5.470;2023-04-01T10:37:23;11.70;80.30
78619;DHT22;67941;52.506;5.470;2023-04-01T10:40:26;11.50;80.10
78619;DHT22;67941;52.506;5.470;2023-04-01T10:43:40;11.50;80.20
78619;DHT22;67941;52.506;5.470;2023-04-01T10:46:35;11.40;80.20
78619;DHT22;67941;52.506;5.470;2023-04-01T10:49:35;11.40;80.40
78619;DHT22;67941;52.506;5.470;2023-04-01T11:03:06;11.50;80.50
78619;DHT22;67941;52.506;5.470;2023-04-01T11:15:21;11.50;80.70
78619;DHT22;67941;52.506;5.470;2023-04-01T11:21:15;11.50;80.80
78619;DHT22;67941;52.506;5.470;2023-04-01T11:23:58;11.60;80.90
78619;DHT22;67941;52.506;5.470;2023-04-01T11:26:52;11.70;81.00
78619;DHT22;67941;52.506;5.470;2023-04-01T11:30:14;11.70;80.70
78619;DHT22;67941;52.506;5.470;2023-04-01T11:32:53;11.70;80.50
78619;DHT22;67941;52.506;5.470;2023-04-01T11:35:46;11.60;80.30
78619;DHT22;67941;52.506;5.470;2023-04-01T11:38:27;11.50;80.40
78619;DHT22;67941;52.506;5.470;2023-04-01T11:41:26;11.50;80.50
78619;DHT22;67941;52.506;5.470;2023-04-01T11:44:26;11.50;80.50
78619;DHT22;67941;52.506;5.470;2023-04-01T11:47:40;11.40;80.80
78619;DHT22;67941;52.506;5.470;2023-04-01T11:50:23;11.50;80.90
78619;DHT22;67941;52.506;5.470;2023-04-01T11:53:13;11.50;80.80
78619;DHT22;67941;52.506;5.470;2023-04-01T11:55:56;11.50;80.70
78619;DHT22;67941;52.506;5.470;2023-04-01T12:01:40;11.40;80.60
78619;DHT22;67941;52.506;5.470;2023-04-01T12:10:39;11.30;80.60
78619;DHT22;67941;52.506;5.470;2023-04-01T12:13:20;11.30;80.50
78619;DHT22;67941;52.506;5.470;2023-04-01T12:16:04;11.30;80.60
78619;DHT22;67941;52.506;5.470;2023-04-01T12:18:40;11.20;80.70
78619;DHT22;67941;52.506;5.470;2023-04-01T12:21:21;11.20;80.70
78619;DHT22;67941;52.506;5.470;2023-04-01T12:24:22;11.20;80.70
78619;DHT22;67941;52.506;5.470;2023-04-01T12:26:59;11.20;80.60
78619;DHT22;67941;52.506;5.470;2023-04-01T12:29:57;11.10;80.50
78619;DHT22;67941;52.506;5.470;2023-04-01T12:32:37;11.10;80.40
78619;DHT22;67941;52.506;5.470;2023-04-01T12:35:21;11.00;80.50
78619;DHT22;67941;52.506;5.470;2023-04-01T12:38:07;10.90;80.60
78619;DHT22;67941;52.506;5.470;2023-04-01T12:40:54;10.90;80.70
78619;DHT22;67941;52.506;5.470;2023-04-01T12:43:47;10.90;80.80
78619;DHT22;67941;52.506;5.470;2023-04-01T12:46:27;10.80;80.90
78619;DHT22;67941;52.506;5.470;2023-04-01T12:49:06;10.80;80.90
78619;DHT22;67941;52.506;5.470;2023-04-01T12:51:56;10.90;80.90
78619;DHT22;67941;52.506;5.470;2023-04-01T12:57:59;10.90;81.20
78619;DHT22;67941;52.506;5.470;2023-04-01T13:00:45;11.00;81.20
78619;DHT22;67941;52.506;5.470;2023-04-01T13:03:37;11.10;81.40
78619;DHT22;67941;52.506;5.470;2023-04-01T13:06:36;11.30;81.40
78619;DHT22;67941;52.506;5.470;2023-04-01T13:09:14;11.40;81.30
78619;DHT22;67941;52.506;5.470;2023-04-01T13:12:00;11.50;81.10
78619;DHT22;67941;52.506;5.470;2023-04-01T13:14:59;11.50;81.00
78619;DHT22;67941;52.506;5.470;2023-04-01T13:17:38;11.40;80.90
78619;DHT22;67941;52.506;5.470;2023-04-01T13:20:16;11.40;80.80
78619;DHT22;67941;52.506;5.470;2023-04-01T13:23:01;11.30;80.80
78619;DHT22;67941;52.506;5.470;2023-04-01T13:25:37;11.30;80.70
78619;DHT22;67941;52.506;5.470;2023-04-01T13:28:15;11.20;80.70
78619;DHT22;67941;52.506;5.470;2023-04-01T13:30:49;11.10;80.70
78619;DHT22;67941;52.506;5.470;2023-04-01T13:33:30;11.10;80.70
78619;DHT22;67941;52.506;5.470;2023-04-01T13:36:26;11.10;80.80
78619;DHT22;67941;52.506;5.470;2023-04-01T13:39:11;11.10;80.90
78619;DHT22;67941;52.506;5.470;2023-04-01T13:42:06;11.10;81.00
78619;DHT22;67941;52.506;5.470;2023-04-01T13:44:41;11.20;80.90
78619;DHT22;67941;52.506;5.470;2023-04-01T13:47:29;11.20;80.70
78619;DHT22;67941;52.506;5.470;2023-04-01T13:50:34;11.10;80.70
78619;DHT22;67941;52.506;5.470;2023-04-01T13:56:37;11.10;80.60
78619;DHT22;67941;52.506;5.470;2023-04-01T13:59:39;11.10;80.60
78619;DHT22;67941;52.506;5.470;2023-04-01T14:02:38;11.10;80.50
78619;DHT22;67941;52.506;5.470;2023-04-01T14:05:28;11.00;80.30
78619;DHT22;67941;52.506;5.470;2023-04-01T14:08:07;10.90;80.30
78619;DHT22;67941;52.506;5.470;2023-04-01T14:10:44;10.80;80.30
78619;DHT22;67941;52.506;5.470;2023-04-01T14:13:26;10.80;80.30
78619;DHT22;67941;52.506;5.470;2023-04-01T14:16:25;10.70;80.40
78619;DHT22;67941;52.506;5.470;2023-04-01T14:19:08;10.70;80.40
78619;DHT22;67941;52.506;5.470;2023-04-01T14:21:43;10.70;80.50
78619;DHT22;67941;52.506;5.470;2023-04-01T14:27:35;10.60;80.50
78619;DHT22;67941;52.506;5.470;2023-04-01T14:30:30;10.60;80.50
78619;DHT22;67941;52.506;5.470;2023-04-01T14:33:15;10.60;80.50
78619;DHT22;67941;52.506;5.470;2023-04-01T14:35:50;10.50;80.50
78619;DHT22;67941;52.506;5.470;2023-04-01T14:38:35;10.50;80.50
78619;DHT22;67941;52.506;5.470;2023-04-01T14:41:20;10.50;80.50
78619;DHT22;67941;52.506;5.470;2023-04-01T14:44:16;10.50;80.50
78619;DHT22;67941;52.506;5.470;2023-04-01T14:49:47;10.50;80.50
78619;DHT22;67941;52.506;5.470;2023-04-01T14:52:23;10.40;80.40
78619;DHT22;67941;52.506;5.470;2023-04-01T14:54:54;10.40;80.50
78619;DHT22;67941;52.506;5.470;2023-04-01T14:57:24;10.40;80.50
78619;DHT22;67941;52.506;5.470;2023-04-01T15:00:09;10.30;80.60
78619;DHT22;67941;52.506;5.470;2023-04-01T15:02:44;10.30;80.50
78619;DHT22;67941;52.506;5.470;2023-04-01T15:05:27;10.30;80.50
78619;DHT22;67941;52.506;5.470;2023-04-01T15:08:11;10.30;80.50
78619;DHT22;67941;52.506;5.470;2023-04-01T15:14:08;10.20;80.40
78619;DHT22;67941;52.506;5.470;2023-04-01T15:16:50;10.10;80.50
78619;DHT22;67941;52.506;5.470;2023-04-01T15:19:31;10.10;80.40
78619;DHT22;67941;52.506;5.470;2023-04-01T15:22:19;10.10;80.40
78619;DHT22;67941;52.506;5.470;2023-04-01T15:25:05;10.00;80.50
78619;DHT22;67941;52.506;5.470;2023-04-01T15:27:47;10.00;80.40
78619;DHT22;67941;52.506;5.470;2023-04-01T15:30:31;10.00;80.50
78619;DHT22;67941;52.506;5.470;2023-04-01T15:33:25;10.00;80.40
78619;DHT22;67941;52.506;5.470;2023-04-01T15:36:05;9.90;80.40
78619;DHT22;67941;52.506;5.470;2023-04-01T15:38:42;9.80;80.50
78619;DHT22;67941;52.506;5.470;2023-04-01T15:41:15;9.70;80.40
78619;DHT22;67941;52.506;5.470;2023-04-01T15:43:45;9.70;80.50
78619;DHT22;67941;52.506;5.470;2023-04-01T15:46:27;9.70;80.50
78619;DHT22;67941;52.506;5.470;2023-04-01T15:49:11;9.70;80.60
78619;DHT22;67941;52.506;5.470;2023-04-01T15:55:04;9.70;80.70
78619;DHT22;67941;52.506;5.470;2023-04-01T15:57:41;9.70;80.60
78619;DHT22;67941;52.506;5.470;2023-04-01T16:00:24;9.70;80.50
78619;DHT22;67941;52.506;5.470;2023-04-01T16:03:20;9.60;80.50
78619;DHT22;67941;52.506;5.470;2023-04-01T16:06:08;9.50;80.40
78619;DHT22;67941;52.506;5.470;2023-04-01T16:09:02;9.50;80.40
78619;DHT22;67941;52.506;5.470;2023-04-01T16:11:41;9.40;80.40
78619;DHT22;67941;52.506;5.470;2023-04-01T16:14:29;9.40;80.40
78619;DHT22;67941;52.506;5.470;2023-04-01T16:17:14;9.40;80.40
78619;DHT22;67941;52.506;5.470;2023-04-01T16:19:53;9.40;80.40
78619;DHT22;67941;52.506;5.470;2023-04-01T16:22:31;9.40;80.50
78619;DHT22;67941;52.506;5.470;2023-04-01T16:25:14;9.30;80.50
78619;DHT22;67941;52.506;5.470;2023-04-01T16:27:51;9.40;80.60
78619;DHT22;67941;52.506;5.470;2023-04-01T16:30:37;9.40;80.50
78619;DHT22;67941;52.506;5.470;2023-04-01T16:33:14;9.40;80.50
78619;DHT22;67941;52.506;5.470;2023-04-01T16:35:49;9.30;80.40
78619;DHT22;67941;52.506;5.470;2023-04-01T16:38:25;9.20;80.50
78619;DHT22;67941;52.506;5.470;2023-04-01T16:41:07;9.20;80.50
78619;DHT22;67941;52.506;5.470;2023-04-01T16:43:42;9.20;80.50
78619;DHT22;67941;52.506;5.470;2023-04-01T16:46:30;9.20;80.50
78619;DHT22;67941;52.506;5.470;2023-04-01T16:49:29;9.20;80.50
78619;DHT22;67941;52.506;5.470;2023-04-01T16:52:13;9.10;80.40
78619;DHT22;67941;52.506;5.470;2023-04-01T16:54:51;9.00;80.40
78619;DHT22;67941;52.506;5.470;2023-04-01T16:57:26;9.00;80.40
78619;DHT22;67941;52.506;5.470;2023-04-01T17:00:00;9.00;80.40
78619;DHT22;67941;52.506;5.470;2023-04-01T17:02:35;9.00;80.40
78619;DHT22;67941;52.506;5.470;2023-04-01T17:05:08;8.90;80.40
78619;DHT22;67941;52.506;5.470;2023-04-01T17:07:46;8.90;80.40
78619;DHT22;67941;52.506;5.470;2023-04-01T17:10:37;8.90;80.40
78619;DHT22;67941;52.506;5.470;2023-04-01T17:13:27;8.90;80.40
78619;DHT22;67941;52.506;5.470;2023-04-01T17:16:06;8.80;80.30
78619;DHT22;67941;52.506;5.470;2023-04-01T17:18:41;8.80;80.20
78619;DHT22;67941;52.506;5.470;2023-04-01T17:21:17;8.70;80.40
78619;DHT22;67941;52.506;5.470;2023-04-01T17:23:51;8.70;80.50
78619;DHT22;67941;52.506;5.470;2023-04-01T17:26:28;8.60;80.70
78619;DHT22;67941;52.506;5.470;2023-04-01T17:29:07;8.60;80.80
78619;DHT22;67941;52.506;5.470;2023-04-01T17:31:46;8.60;81.00
78619;DHT22;67941;52.506;5.470;2023-04-01T17:34:33;8.60;81.30
78619;DHT22;67941;52.506;5.470;2023-04-01T17:37:22;8.60;81.50
78619;DHT22;67941;52.506;5.470;2023-04-01T17:40:04;8.50;81.70
78619;DHT22;67941;52.506;5.470;2023-04-01T17:42:46;8.50;81.80
78619;DHT22;67941;52.506;5.470;2023-04-01T17:45:21;8.50;81.90
78619;DHT22;67941;52.506;5.470;2023-04-01T17:48:03;8.40;82.00
78619;DHT22;67941;52.506;5.470;2023-04-01T17:50:49;8.40;82.20
78619;DHT22;67941;52.506;5.470;2023-04-01T17:53:32;8.40;82.40
78619;DHT22;67941;52.506;5.470;2023-04-01T17:56:13;8.30;82.40
78619;DHT22;67941;52.506;5.470;2023-04-01T17:58:50;8.30;82.50
78619;DHT22;67941;52.506;5.470;2023-04-01T18:01:43;8.20;82.60
78619;DHT22;67941;52.506;5.470;2023-04-01T18:04:37;8.20;82.70
78619;DHT22;67941;52.506;5.470;2023-04-01T18:07:32;8.20;82.80
78619;DHT22;67941;52.506;5.470;2023-04-01T18:10:17;8.10;83.00
78619;DHT22;67941;52.506;5.470;2023-04-01T18:13:19;8.10;83.20
78619;DHT22;67941;52.506;5.470;2023-04-01T18:16:05;8.10;83.30
78619;DHT22;67941;52.506;5.470;2023-04-01T18:18:48;8.20;83.40
78619;DHT22;67941;52.506;5.470;2023-04-01T18:21:26;8.10;83.40